createdAt,value
2023-12-09T00:01:54.235Z,101713.47
2023-12-09T00:04:56.300Z,101726.19
2023-12-09T00:07:58.517Z,101718.03
2023-12-09T00:11:00.694Z,101717.56
2023-12-09T00:14:05.394Z,101704.22
2023-12-09T00:17:07.830Z,101714.31
2023-12-09T00:20:10.381Z,101725.44
2023-12-09T00:23:12.479Z,101729.56
2023-12-09T00:26:14.708Z,101733.72
2023-12-09T00:29:17.190Z,101744.50
2023-12-09T00:32:19.479Z,101752.91
2023-12-09T00:35:21.823Z,101748.13
2023-12-09T00:38:24.290Z,101764.50
2023-12-09T00:41:26.341Z,101761.50
2023-12-09T00:44:28.577Z,101778.72
2023-12-09T00:47:30.696Z,101756.53
2023-12-09T00:50:32.914Z,101769.53
2023-12-09T00:53:34.944Z,101773.22
2023-12-09T00:56:36.969Z,101762.34
2023-12-09T00:59:39.014Z,101765.22
2023-12-09T01:02:41.562Z,101757.09
2023-12-09T01:05:44.043Z,101754.63
2023-12-09T01:08:46.385Z,101759.88
2023-12-09T01:11:48.515Z,101765.03
2023-12-09T01:14:50.744Z,101758.50
2023-12-09T01:17:53.028Z,101760.88
2023-12-09T01:20:55.081Z,101755.84
2023-12-09T01:23:57.299Z,101760.41
2023-12-09T01:26:59.607Z,101762.41
2023-12-09T01:30:01.848Z,101744.75
2023-12-09T01:33:04.355Z,101754.38
2023-12-09T01:36:06.785Z,101754.78
2023-12-09T01:39:10.462Z,101761.25
2023-12-09T01:42:12.815Z,101763.00
2023-12-09T01:45:15.182Z,101748.44
2023-12-09T01:48:17.627Z,101740.75
2023-12-09T01:51:20.032Z,101748.78
2023-12-09T01:54:22.316Z,101749.75
2023-12-09T01:57:25.222Z,101748.06
2023-12-09T02:00:27.677Z,101743.50
2023-12-09T02:03:32.516Z,101738.94
2023-12-09T02:06:34.884Z,101750.53
2023-12-09T02:09:40.750Z,101751.00
2023-12-09T02:12:56.472Z,101750.28
2023-12-09T02:16:23.517Z,101734.13
2023-12-09T02:19:27.187Z,101742.25
2023-12-09T02:22:29.972Z,101747.31
2023-12-09T02:25:33.059Z,101744.06
2023-12-09T02:28:41.383Z,101744.03
2023-12-09T02:31:45.134Z,101745.59
2023-12-09T02:34:49.197Z,101755.25
2023-12-09T02:37:53.423Z,101759.78
2023-12-09T02:40:56.513Z,101754.22
2023-12-09T02:43:59.216Z,101755.38
2023-12-09T02:47:01.266Z,101756.59
2023-12-09T02:50:03.820Z,101760.97
2023-12-09T02:53:06.015Z,101777.00
2023-12-09T02:56:08.567Z,101776.88
2023-12-09T02:59:10.683Z,101775.06
2023-12-09T03:02:12.769Z,101790.13
2023-12-09T03:05:15.104Z,101766.59
2023-12-09T03:08:17.227Z,101778.47
2023-12-09T03:11:19.908Z,101775.63
2023-12-09T03:14:23.735Z,101774.69
2023-12-09T03:17:26.013Z,101775.97
2023-12-09T03:20:28.226Z,101767.75
2023-12-09T03:23:30.298Z,101752.09
2023-12-09T03:26:32.862Z,101773.69
2023-12-09T03:29:36.959Z,101760.94
2023-12-09T03:32:39.929Z,101760.66
2023-12-09T03:35:43.115Z,101760.38
2023-12-09T03:38:45.383Z,101767.69
2023-12-09T03:41:47.474Z,101772.53
2023-12-09T03:44:49.737Z,101766.66
2023-12-09T03:47:52.240Z,101771.38
2023-12-09T03:50:54.445Z,101774.00
2023-12-09T03:53:56.504Z,101763.44
2023-12-09T03:56:58.963Z,101767.50
2023-12-09T04:00:01.284Z,101754.88
2023-12-09T04:03:04.252Z,101755.38
2023-12-09T04:06:06.696Z,101760.94
2023-12-09T04:09:10.861Z,101762.22
2023-12-09T04:12:13.023Z,101742.78
2023-12-09T04:15:15.249Z,101758.28
2023-12-09T04:18:18.672Z,101757.34
2023-12-09T04:21:21.695Z,101759.03
2023-12-09T04:24:24.573Z,101762.81
2023-12-09T04:27:26.701Z,101766.97
2023-12-09T04:30:29.697Z,101762.03
2023-12-09T04:33:32.008Z,101760.47
2023-12-09T04:36:34.444Z,101769.50
2023-12-09T04:39:36.817Z,101747.91
2023-12-09T04:42:39.817Z,101739.06
2023-12-09T04:45:41.998Z,101744.81
2023-12-09T04:48:44.876Z,101745.78
2023-12-09T04:51:47.222Z,101741.06
2023-12-09T04:54:49.516Z,101752.94
2023-12-09T04:57:51.720Z,101754.00
2023-12-09T05:00:53.899Z,101749.00
2023-12-09T05:03:56.132Z,101753.09
2023-12-09T05:06:58.453Z,101747.53
2023-12-09T05:10:00.737Z,101754.94
2023-12-09T05:13:02.790Z,101758.16
2023-12-09T05:16:05.302Z,101755.00
2023-12-09T05:19:08.151Z,101759.38
2023-12-09T05:22:10.300Z,101767.94
2023-12-09T05:25:12.521Z,101777.34
2023-12-09T05:28:14.617Z,101760.44
2023-12-09T05:31:16.791Z,101753.34
2023-12-09T05:34:19.151Z,101763.28
2023-12-09T05:37:21.617Z,101757.09
2023-12-09T05:40:23.653Z,101763.19
2023-12-09T05:43:25.760Z,101766.03
2023-12-09T05:46:28.189Z,101773.03
2023-12-09T05:49:30.528Z,101776.41
2023-12-09T05:52:32.680Z,101766.94
2023-12-09T05:55:34.831Z,101779.56
2023-12-09T05:58:36.905Z,101781.13
2023-12-09T06:01:39.075Z,101779.78
2023-12-09T06:04:41.211Z,101787.03
2023-12-09T06:07:43.415Z,101773.09
2023-12-09T06:10:45.550Z,101760.06
2023-12-09T06:13:47.649Z,101783.53
2023-12-09T06:16:49.876Z,101770.56
2023-12-09T06:19:52.359Z,101768.19
2023-12-09T06:22:54.561Z,101757.91
2023-12-09T06:25:56.550Z,101770.53
2023-12-09T06:28:58.662Z,101758.47
2023-12-09T06:32:02.983Z,101759.00
2023-12-09T06:35:05.563Z,101768.34
2023-12-09T06:38:08.153Z,101763.91
2023-12-09T06:41:10.239Z,101758.75
2023-12-09T06:44:13.539Z,101771.38
2023-12-09T06:47:15.637Z,101772.06
2023-12-09T06:50:17.965Z,101778.41
2023-12-09T06:53:20.044Z,101785.75
2023-12-09T06:56:22.945Z,101796.03
2023-12-09T06:59:25.182Z,101788.19
2023-12-09T07:02:34.685Z,101787.31
2023-12-09T07:05:43.322Z,101773.59
2023-12-09T07:08:46.192Z,101800.41
2023-12-09T07:11:48.296Z,101787.97
2023-12-09T07:15:06.705Z,101798.28
2023-12-09T07:18:08.933Z,101803.50
2023-12-09T07:21:11.573Z,101809.19
2023-12-09T07:24:14.177Z,101800.94
2023-12-09T07:27:16.210Z,101802.47
2023-12-09T07:30:18.419Z,101801.81
2023-12-09T07:33:20.673Z,101810.66
2023-12-09T07:36:23.012Z,101815.38
2023-12-09T07:39:25.285Z,101809.28
2023-12-09T07:42:27.835Z,101820.78
2023-12-09T07:45:30.206Z,101831.25
2023-12-09T07:48:32.877Z,101830.50
2023-12-09T07:51:37.289Z,101833.06
2023-12-09T07:54:39.453Z,101839.25
2023-12-09T07:57:41.646Z,101842.53
2023-12-09T08:00:43.801Z,101840.78
2023-12-09T08:03:46.350Z,101830.78
2023-12-09T08:06:48.578Z,101832.75
2023-12-09T08:09:50.767Z,101803.06
2023-12-09T08:12:52.907Z,101822.75
2023-12-09T08:15:55.042Z,101834.25
2023-12-09T08:18:57.300Z,101831.13
2023-12-09T08:22:00.669Z,101803.38
2023-12-09T08:25:02.937Z,101850.53
2023-12-09T08:28:07.096Z,101841.06
2023-12-09T08:31:09.487Z,101840.88
2023-12-09T08:34:11.642Z,101828.63
2023-12-09T08:37:14.022Z,101824.22
2023-12-09T08:40:16.384Z,101820.34
2023-12-09T08:43:18.483Z,101813.81
2023-12-09T08:46:20.532Z,101823.19
2023-12-09T08:49:22.762Z,101806.88
2023-12-09T08:52:25.216Z,101803.22
2023-12-09T08:55:27.496Z,101800.31
2023-12-09T08:58:29.873Z,101792.94
2023-12-09T09:01:31.921Z,101782.56
2023-12-09T09:04:34.790Z,101782.06
2023-12-09T09:07:41.430Z,101784.00
2023-12-09T09:10:43.665Z,101771.50
2023-12-09T09:13:45.849Z,101777.22
2023-12-09T09:16:48.451Z,101772.66
2023-12-09T09:19:50.702Z,101765.03
2023-12-09T09:22:52.931Z,101779.63
2023-12-09T09:25:55.046Z,101783.28
2023-12-09T09:28:57.763Z,101786.94
2023-12-09T09:31:59.904Z,101794.53
2023-12-09T09:35:02.120Z,101787.38
2023-12-09T09:38:04.235Z,101774.84
2023-12-09T09:41:10.715Z,101775.63
2023-12-09T09:44:18.695Z,101770.50
2023-12-09T09:47:22.406Z,101769.34
2023-12-09T09:50:26.553Z,101765.28
2023-12-09T09:53:41.070Z,101757.09
2023-12-09T09:56:44.269Z,101755.31
2023-12-09T09:59:46.774Z,101729.06
2023-12-09T10:02:54.634Z,101752.91
2023-12-09T10:05:59.646Z,101735.94
2023-12-09T10:09:02.108Z,101721.25
2023-12-09T10:12:04.645Z,101736.88
2023-12-09T10:15:08.355Z,101739.19
2023-12-09T10:18:14.942Z,101741.72
2023-12-09T10:21:17.455Z,101736.94
2023-12-09T10:24:19.699Z,101732.38
2023-12-09T10:27:23.937Z,101730.28
2023-12-09T10:30:26.552Z,101723.59
2023-12-09T10:33:34.438Z,101718.69
2023-12-09T10:36:37.026Z,101724.44
2023-12-09T10:39:46.426Z,101723.94
2023-12-09T10:42:49.895Z,101708.91
2023-12-09T10:45:52.049Z,101710.53
2023-12-09T10:48:55.338Z,101690.25
2023-12-09T10:51:57.621Z,101696.44
2023-12-09T10:55:00.095Z,101694.59
2023-12-09T10:58:05.617Z,101678.22
2023-12-09T11:01:08.636Z,101682.28
2023-12-09T11:04:11.226Z,101678.09
2023-12-09T11:07:13.946Z,101677.34
2023-12-09T11:10:16.975Z,101681.03
2023-12-09T11:13:20.258Z,101653.78
2023-12-09T11:16:22.657Z,101660.81
2023-12-09T11:19:26.227Z,101659.44
2023-12-09T11:22:29.935Z,101663.22
2023-12-09T11:25:32.178Z,101666.41
2023-12-09T11:28:34.297Z,101671.56
2023-12-09T11:31:44.244Z,101643.44
2023-12-09T11:34:46.565Z,101661.13
2023-12-09T11:37:50.481Z,101652.28
2023-12-09T11:40:53.426Z,101652.50
2023-12-09T11:43:57.106Z,101648.81
2023-12-09T11:46:59.546Z,101654.13
2023-12-09T11:50:02.541Z,101652.94
2023-12-09T11:53:04.678Z,101655.63
2023-12-09T11:56:07.784Z,101656.31
2023-12-09T11:59:09.942Z,101642.59
2023-12-09T12:02:12.053Z,101635.13
2023-12-09T12:05:14.380Z,101635.72
2023-12-09T12:08:17.342Z,101610.72
2023-12-09T12:11:23.311Z,101642.41
2023-12-09T12:14:26.893Z,101645.13
2023-12-09T12:17:37.256Z,101634.78
2023-12-09T12:20:39.472Z,101631.69
2023-12-09T12:23:41.548Z,101615.38
2023-12-09T12:26:43.706Z,101617.19
2023-12-09T12:29:45.830Z,101621.97
2023-12-09T12:32:57.053Z,101611.13
2023-12-09T12:36:03.040Z,101626.91
2023-12-09T12:39:07.420Z,101630.00
2023-12-09T12:42:09.880Z,101625.38
2023-12-09T12:45:19.315Z,101606.56
2023-12-09T12:48:22.189Z,101612.56
2023-12-09T12:51:26.962Z,101613.03
2023-12-09T12:54:29.251Z,101603.78
2023-12-09T12:57:32.757Z,101614.28
2023-12-09T13:00:34.932Z,101586.66
2023-12-09T13:03:37.226Z,101617.13
2023-12-09T13:06:39.442Z,101619.50
2023-12-09T13:09:41.704Z,101619.75
2023-12-09T13:12:44.055Z,101605.72
2023-12-09T13:15:46.552Z,101628.53
2023-12-09T13:18:49.580Z,101610.41
2023-12-09T13:21:51.782Z,101605.72
2023-12-09T13:24:54.130Z,101606.78
2023-12-09T13:27:56.594Z,101609.63
2023-12-09T13:30:59.109Z,101612.09
2023-12-09T13:34:01.479Z,101615.00
2023-12-09T13:37:04.648Z,101613.31
2023-12-09T13:40:09.144Z,101612.19
2023-12-09T13:43:11.385Z,101607.66
2023-12-09T13:46:14.861Z,101606.50
2023-12-09T13:49:17.101Z,101595.06
2023-12-09T13:52:19.354Z,101595.66
2023-12-09T13:55:22.274Z,101604.59
2023-12-09T13:58:24.407Z,101604.19
2023-12-09T14:01:26.690Z,101607.03
2023-12-09T14:04:29.317Z,101613.03
2023-12-09T14:07:32.074Z,101606.28
2023-12-09T14:10:34.270Z,101606.72
2023-12-09T14:13:36.926Z,101607.41
2023-12-09T14:16:39.115Z,101614.97
2023-12-09T14:19:41.634Z,101614.84
2023-12-09T14:22:46.239Z,101597.03
2023-12-09T14:25:48.428Z,101615.44
2023-12-09T14:28:50.979Z,101618.34
2023-12-09T14:31:53.134Z,101617.06
2023-12-09T14:34:55.683Z,101611.53
2023-12-09T14:37:58.219Z,101616.28
2023-12-09T14:41:00.439Z,101625.34
2023-12-09T14:44:07.982Z,101628.03
2023-12-09T14:47:11.556Z,101622.50
2023-12-09T14:50:14.225Z,101611.06
2023-12-09T14:53:18.737Z,101625.16
2023-12-09T14:56:20.879Z,101636.28
2023-12-09T14:59:23.515Z,101616.44
2023-12-09T15:02:26.039Z,101619.25
2023-12-09T15:05:28.439Z,101620.78
2023-12-09T15:08:30.769Z,101622.72
2023-12-09T15:11:32.835Z,101620.81
2023-12-09T15:14:35.091Z,101624.34
2023-12-09T15:17:38.728Z,101606.16
2023-12-09T15:20:41.128Z,101617.09
2023-12-09T15:23:43.410Z,101630.22
2023-12-09T15:26:45.578Z,101636.09
2023-12-09T15:29:48.823Z,101624.97
2023-12-09T15:32:51.045Z,101640.28
2023-12-09T15:35:55.985Z,101626.00
2023-12-09T15:38:58.189Z,101616.56
2023-12-09T15:42:00.598Z,101630.28
2023-12-09T15:45:04.189Z,101626.09
2023-12-09T15:48:06.769Z,101618.78
2023-12-09T15:51:09.191Z,101619.47
2023-12-09T15:54:11.330Z,101616.72
2023-12-09T15:57:15.080Z,101621.81
2023-12-09T16:00:17.587Z,101621.03
2023-12-09T16:03:20.513Z,101630.75
2023-12-09T16:06:25.004Z,101640.22
2023-12-09T16:09:27.326Z,101637.16
2023-12-09T16:12:29.800Z,101640.28
2023-12-09T16:15:32.194Z,101643.25
2023-12-09T16:18:34.552Z,101641.09
2023-12-09T16:21:37.049Z,101642.66
2023-12-09T16:24:39.197Z,101635.44
2023-12-09T16:27:41.522Z,101647.16
2023-12-09T16:30:44.022Z,101641.81
2023-12-09T16:33:48.492Z,101645.22
2023-12-09T16:37:01.147Z,101643.91
2023-12-09T16:40:04.143Z,101632.78
2023-12-09T16:43:21.332Z,101625.06
2023-12-09T16:46:24.198Z,101611.88
2023-12-09T16:49:26.418Z,101614.16
2023-12-09T16:52:28.907Z,101628.44
2023-12-09T16:55:31.131Z,101629.22
2023-12-09T16:58:33.322Z,101631.34
2023-12-09T17:01:35.575Z,101621.88
2023-12-09T17:04:37.969Z,101629.22
2023-12-09T17:07:40.244Z,101620.25
2023-12-09T17:10:42.331Z,101617.09
2023-12-09T17:13:44.423Z,101635.41
2023-12-09T17:16:46.783Z,101629.91
2023-12-09T17:19:49.005Z,101626.50
2023-12-09T17:22:51.278Z,101625.94
2023-12-09T17:25:53.481Z,101628.94
2023-12-09T17:28:55.540Z,101618.28
2023-12-09T17:31:57.624Z,101612.69
2023-12-09T17:34:59.880Z,101612.63
2023-12-09T17:38:02.095Z,101612.41
2023-12-09T17:41:06.418Z,101602.56
2023-12-09T17:44:08.611Z,101614.50
2023-12-09T17:47:10.786Z,101611.06
2023-12-09T17:50:12.888Z,101615.13
2023-12-09T17:53:18.032Z,101620.50
2023-12-09T17:56:20.219Z,101621.78
2023-12-09T17:59:22.310Z,101625.66
2023-12-09T18:02:24.540Z,101628.25
2023-12-09T18:05:26.894Z,101627.63
2023-12-09T18:08:29.711Z,101624.75
2023-12-09T18:11:31.885Z,101629.00
2023-12-09T18:14:34.002Z,101617.25
2023-12-09T18:17:36.209Z,101620.31
2023-12-09T18:20:38.519Z,101606.13
2023-12-09T18:23:40.761Z,101602.06
2023-12-09T18:26:43.234Z,101616.97
2023-12-09T18:29:45.518Z,101603.09
2023-12-09T18:32:47.936Z,101600.88
2023-12-09T18:35:50.215Z,101572.66
2023-12-09T18:38:52.473Z,101588.88
2023-12-09T18:41:55.297Z,101573.31
2023-12-09T18:44:58.208Z,101598.34
2023-12-09T18:48:00.494Z,101587.69
2023-12-09T18:51:04.531Z,101588.53
2023-12-09T18:54:06.725Z,101571.44
2023-12-09T18:57:08.964Z,101571.44
2023-12-09T19:00:12.230Z,101593.56
2023-12-09T19:03:14.654Z,101570.56
2023-12-09T19:06:16.929Z,101559.38
2023-12-09T19:09:19.927Z,101560.78
2023-12-09T19:12:23.361Z,101578.22
2023-12-09T19:15:27.004Z,101570.63
2023-12-09T19:18:29.356Z,101559.78
2023-12-09T19:21:31.702Z,101566.38
2023-12-09T19:24:34.331Z,101563.97
2023-12-09T19:27:36.632Z,101554.69
2023-12-09T19:30:38.889Z,101547.09
2023-12-09T19:33:41.224Z,101543.53
2023-12-09T19:36:45.231Z,101549.09
2023-12-09T19:39:47.776Z,101522.19
2023-12-09T19:42:51.272Z,101517.44
2023-12-09T19:45:53.622Z,101534.03
2023-12-09T19:48:56.926Z,101532.88
2023-12-09T19:51:59.191Z,101530.47
2023-12-09T19:55:01.564Z,101523.44
2023-12-09T19:58:04.036Z,101530.41
2023-12-09T20:01:06.614Z,101525.22
2023-12-09T20:04:08.989Z,101534.28
2023-12-09T20:07:11.428Z,101521.03
2023-12-09T20:10:14.275Z,101522.22
2023-12-09T20:13:17.133Z,101529.47
2023-12-09T20:16:19.308Z,101521.34
2023-12-09T20:19:24.780Z,101521.81
2023-12-09T20:22:28.820Z,101515.06
2023-12-09T20:25:31.065Z,101512.31
2023-12-09T20:28:34.973Z,101521.78
2023-12-09T20:31:37.074Z,101517.56
2023-12-09T20:34:39.281Z,101481.69
2023-12-09T20:37:41.719Z,101502.69
2023-12-09T20:40:44.871Z,101500.28
2023-12-09T20:43:48.861Z,101496.41
2023-12-09T20:46:52.296Z,101487.91
2023-12-09T20:49:54.686Z,101501.59
2023-12-09T20:52:56.876Z,101488.38
2023-12-09T20:55:59.056Z,101484.34
2023-12-09T20:59:05.391Z,101470.63
2023-12-09T21:02:07.540Z,101486.88
2023-12-09T21:05:09.817Z,101485.31
2023-12-09T21:08:11.982Z,101481.28
2023-12-09T21:11:15.505Z,101491.72
2023-12-09T21:14:17.743Z,101491.94
2023-12-09T21:17:20.065Z,101490.91
2023-12-09T21:20:22.133Z,101484.47
2023-12-09T21:23:24.343Z,101477.38
2023-12-09T21:26:26.610Z,101467.59
2023-12-09T21:29:29.549Z,101475.22
2023-12-09T21:32:31.779Z,101469.09
2023-12-09T21:35:33.965Z,101464.22
2023-12-09T21:38:38.218Z,101463.16
2023-12-09T21:41:40.393Z,101469.63
2023-12-09T21:44:46.216Z,101460.56
2023-12-09T21:47:54.891Z,101448.69
2023-12-09T21:50:59.217Z,101452.47
2023-12-09T21:54:01.436Z,101451.13
2023-12-09T21:57:03.775Z,101421.03
2023-12-09T22:00:06.860Z,101442.03
2023-12-09T22:03:09.260Z,101441.69
2023-12-09T22:06:13.975Z,101441.75
2023-12-09T22:09:16.354Z,101435.50
2023-12-09T22:12:19.050Z,101422.13
2023-12-09T22:15:21.265Z,101406.75
2023-12-09T22:18:23.662Z,101403.28
2023-12-09T22:21:26.171Z,101405.91
2023-12-09T22:24:29.294Z,101406.56
2023-12-09T22:27:31.414Z,101425.13
2023-12-09T22:30:33.622Z,101415.88
2023-12-09T22:33:37.425Z,101410.63
2023-12-09T22:36:40.220Z,101400.25
2023-12-09T22:39:43.232Z,101401.28
2023-12-09T22:42:45.533Z,101393.56
2023-12-09T22:45:47.747Z,101393.44
2023-12-09T22:48:49.957Z,101382.78
2023-12-09T22:51:52.184Z,101382.78
2023-12-09T22:54:54.285Z,101379.25
2023-12-09T22:57:56.581Z,101375.19
2023-12-09T23:00:58.680Z,101387.50
2023-12-09T23:04:04.381Z,101388.50
2023-12-09T23:07:06.809Z,101377.63
2023-12-09T23:10:09.144Z,101367.03
2023-12-09T23:13:11.287Z,101377.53
2023-12-09T23:16:13.902Z,101366.75
2023-12-09T23:19:16.179Z,101358.03
2023-12-09T23:22:18.401Z,101351.47
2023-12-09T23:25:20.472Z,101353.84
2023-12-09T23:28:23.630Z,101362.34
2023-12-09T23:31:31.782Z,101360.34
2023-12-09T23:34:41.332Z,101328.00
2023-12-09T23:37:43.731Z,101353.28
2023-12-09T23:40:45.941Z,101348.13
2023-12-09T23:43:48.192Z,101360.34
2023-12-09T23:46:50.329Z,101343.00
2023-12-09T23:49:52.448Z,101337.19
2023-12-09T23:52:54.493Z,101337.69
2023-12-09T23:55:56.645Z,101339.63
2023-12-09T23:58:59.361Z,101335.72
